sensor_id;sensor_type;location;lat;lon;timestamp;P1;durP1;ratioP1;P2;durP2;ratioP2
9799;SDS011;4939;52.00085300;4.17406100;2023-11-21T00:01:24;7.65;;;1.60;;
9799;SDS011;4939;52.00085300;4.17406100;2023-11-21T00:03:50;9.70;;;1.75;;
9799;SDS011;4939;52.00085300;4.17406100;2023-11-21T00:06:19;6.03;;;1.38;;
9799;SDS011;4939;52.00085300;4.17406100;2023-11-21T00:08:45;7.38;;;1.83;;
9799;SDS011;4939;52.00085300;4.17406100;2023-11-21T00:11:11;5.20;;;1.80;;
9799;SDS011;4939;52.00085300;4.17406100;2023-11-21T00:13:38;6.68;;;1.40;;
9799;SDS011;4939;52.00085300;4.17406100;2023-11-21T00:16:04;7.38;;;1.60;;
9799;SDS011;4939;52.00085300;4.17406100;2023-11-21T00:18:30;4.95;;;1.70;;
9799;SDS011;4939;52.00085300;4.17406100;2023-11-21T00:20:56;5.55;;;1.20;;
9799;SDS011;4939;52.00085300;4.17406100;2023-11-21T00:23:24;2.63;;;1.00;;
9799;SDS011;4939;52.00085300;4.17406100;2023-11-21T00:25:50;4.30;;;1.20;;
9799;SDS011;4939;52.00085300;4.17406100;2023-11-21T00:28:16;5.95;;;1.02;;
9799;SDS011;4939;52.00085300;4.17406100;2023-11-21T00:30:42;3.47;;;0.90;;
9799;SDS011;4939;52.00085300;4.17406100;2023-11-21T00:33:08;4.22;;;1.20;;
9799;SDS011;4939;52.00085300;4.17406100;2023-11-21T00:35:34;11.07;;;1.20;;
9799;SDS011;4939;52.00085300;4.17406100;2023-11-21T00:38:01;6.20;;;1.20;;
9799;SDS011;4939;52.00085300;4.17406100;2023-11-21T00:40:28;5.50;;;1.20;;
9799;SDS011;4939;52.00085300;4.17406100;2023-11-21T00:42:54;5.93;;;1.17;;
9799;SDS011;4939;52.00085300;4.17406100;2023-11-21T00:45:21;7.50;;;0.98;;
9799;SDS011;4939;52.00085300;4.17406100;2023-11-21T00:47:47;3.38;;;0.90;;
9799;SDS011;4939;52.00085300;4.17406100;2023-11-21T00:50:13;2.17;;;0.70;;
9799;SDS011;4939;52.00085300;4.17406100;2023-11-21T00:52:39;3.88;;;0.85;;
9799;SDS011;4939;52.00085300;4.17406100;2023-11-21T00:55:05;5.22;;;0.90;;
9799;SDS011;4939;52.00085300;4.17406100;2023-11-21T00:57:32;3.25;;;0.60;;
9799;SDS011;4939;52.00085300;4.17406100;2023-11-21T00:59:59;3.05;;;0.57;;
9799;SDS011;4939;52.00085300;4.17406100;2023-11-21T01:02:25;3.88;;;0.95;;
9799;SDS011;4939;52.00085300;4.17406100;2023-11-21T01:04:52;7.47;;;0.80;;
9799;SDS011;4939;52.00085300;4.17406100;2023-11-21T01:07:18;1.70;;;0.73;;
9799;SDS011;4939;52.00085300;4.17406100;2023-11-21T01:09:45;3.53;;;0.68;;
9799;SDS011;4939;52.00085300;4.17406100;2023-11-21T01:12:11;2.80;;;0.50;;
9799;SDS011;4939;52.00085300;4.17406100;2023-11-21T01:14:38;2.65;;;0.75;;
9799;SDS011;4939;52.00085300;4.17406100;2023-11-21T01:17:04;2.75;;;0.60;;
9799;SDS011;4939;52.00085300;4.17406100;2023-11-21T01:19:30;1.45;;;0.90;;
9799;SDS011;4939;52.00085300;4.17406100;2023-11-21T01:21:56;3.38;;;0.70;;
9799;SDS011;4939;52.00085300;4.17406100;2023-11-21T01:24:23;2.55;;;0.60;;
9799;SDS011;4939;52.00085300;4.17406100;2023-11-21T01:26:50;1.80;;;0.80;;
9799;SDS011;4939;52.00085300;4.17406100;2023-11-21T01:29:16;4.47;;;0.82;;
9799;SDS011;4939;52.00085300;4.17406100;2023-11-21T01:31:43;3.17;;;0.60;;
9799;SDS011;4939;52.00085300;4.17406100;2023-11-21T01:34:09;7.43;;;1.00;;
9799;SDS011;4939;52.00085300;4.17406100;2023-11-21T01:36:36;2.33;;;0.70;;
9799;SDS011;4939;52.00085300;4.17406100;2023-11-21T01:39:02;1.83;;;0.80;;
9799;SDS011;4939;52.00085300;4.17406100;2023-11-21T01:41:32;3.83;;;0.93;;
9799;SDS011;4939;52.00085300;4.17406100;2023-11-21T01:44:00;1.95;;;0.80;;
9799;SDS011;4939;52.00085300;4.17406100;2023-11-21T01:46:26;3.92;;;0.80;;
9799;SDS011;4939;52.00085300;4.17406100;2023-11-21T01:48:52;6.60;;;0.90;;
9799;SDS011;4939;52.00085300;4.17406100;2023-11-21T01:51:18;3.80;;;1.00;;
9799;SDS011;4939;52.00085300;4.17406100;2023-11-21T01:53:44;3.47;;;1.00;;
9799;SDS011;4939;52.00085300;4.17406100;2023-11-21T01:56:11;2.15;;;0.85;;
9799;SDS011;4939;52.00085300;4.17406100;2023-11-21T01:58:38;4.15;;;0.95;;
9799;SDS011;4939;52.00085300;4.17406100;2023-11-21T02:01:04;5.97;;;1.10;;
9799;SDS011;4939;52.00085300;4.17406100;2023-11-21T02:03:31;3.67;;;1.00;;
9799;SDS011;4939;52.00085300;4.17406100;2023-11-21T02:05:57;3.70;;;0.80;;
9799;SDS011;4939;52.00085300;4.17406100;2023-11-21T02:08:23;4.47;;;1.00;;
9799;SDS011;4939;52.00085300;4.17406100;2023-11-21T02:10:49;4.68;;;1.35;;
9799;SDS011;4939;52.00085300;4.17406100;2023-11-21T02:13:15;4.20;;;1.00;;
9799;SDS011;4939;52.00085300;4.17406100;2023-11-21T02:15:41;3.55;;;1.00;;
9799;SDS011;4939;52.00085300;4.17406100;2023-11-21T02:18:08;3.85;;;1.17;;
9799;SDS011;4939;52.00085300;4.17406100;2023-11-21T02:20:36;4.80;;;1.52;;
9799;SDS011;4939;52.00085300;4.17406100;2023-11-21T02:23:04;6.82;;;1.20;;
9799;SDS011;4939;52.00085300;4.17406100;2023-11-21T02:25:30;6.25;;;1.42;;
9799;SDS011;4939;52.00085300;4.17406100;2023-11-21T02:27:58;2.80;;;0.93;;
9799;SDS011;4939;52.00085300;4.17406100;2023-11-21T02:30:25;8.60;;;1.40;;
9799;SDS011;4939;52.00085300;4.17406100;2023-11-21T02:32:52;3.28;;;1.23;;
9799;SDS011;4939;52.00085300;4.17406100;2023-11-21T02:35:19;4.00;;;1.20;;
9799;SDS011;4939;52.00085300;4.17406100;2023-11-21T02:37:48;6.70;;;1.30;;
9799;SDS011;4939;52.00085300;4.17406100;2023-11-21T02:40:15;6.22;;;1.35;;
9799;SDS011;4939;52.00085300;4.17406100;2023-11-21T02:42:46;6.00;;;1.50;;
9799;SDS011;4939;52.00085300;4.17406100;2023-11-21T02:45:19;5.65;;;1.42;;
9799;SDS011;4939;52.00085300;4.17406100;2023-11-21T02:47:46;5.82;;;1.48;;
9799;SDS011;4939;52.00085300;4.17406100;2023-11-21T02:50:12;4.57;;;1.50;;
9799;SDS011;4939;52.00085300;4.17406100;2023-11-21T02:52:39;9.73;;;1.77;;
9799;SDS011;4939;52.00085300;4.17406100;2023-11-21T02:55:05;4.82;;;1.20;;
9799;SDS011;4939;52.00085300;4.17406100;2023-11-21T02:57:32;7.18;;;1.38;;
9799;SDS011;4939;52.00085300;4.17406100;2023-11-21T02:59:59;4.55;;;1.30;;
9799;SDS011;4939;52.00085300;4.17406100;2023-11-21T03:02:25;6.35;;;1.38;;
9799;SDS011;4939;52.00085300;4.17406100;2023-11-21T03:04:51;5.78;;;1.20;;
9799;SDS011;4939;52.00085300;4.17406100;2023-11-21T03:07:17;4.78;;;1.33;;
9799;SDS011;4939;52.00085300;4.17406100;2023-11-21T03:09:44;6.80;;;1.20;;
9799;SDS011;4939;52.00085300;4.17406100;2023-11-21T03:12:11;6.20;;;1.38;;
9799;SDS011;4939;52.00085300;4.17406100;2023-11-21T03:14:37;5.93;;;1.63;;
9799;SDS011;4939;52.00085300;4.17406100;2023-11-21T03:17:03;4.43;;;1.45;;
9799;SDS011;4939;52.00085300;4.17406100;2023-11-21T03:19:30;5.05;;;1.30;;
9799;SDS011;4939;52.00085300;4.17406100;2023-11-21T03:21:56;6.57;;;1.52;;
9799;SDS011;4939;52.00085300;4.17406100;2023-11-21T03:24:22;6.28;;;1.40;;
9799;SDS011;4939;52.00085300;4.17406100;2023-11-21T03:26:48;4.07;;;1.48;;
9799;SDS011;4939;52.00085300;4.17406100;2023-11-21T03:29:16;6.03;;;1.80;;
9799;SDS011;4939;52.00085300;4.17406100;2023-11-21T03:31:42;4.07;;;1.48;;
9799;SDS011;4939;52.00085300;4.17406100;2023-11-21T03:34:15;5.53;;;1.70;;
9799;SDS011;4939;52.00085300;4.17406100;2023-11-21T03:36:45;7.53;;;1.40;;
9799;SDS011;4939;52.00085300;4.17406100;2023-11-21T03:39:12;8.15;;;1.92;;
9799;SDS011;4939;52.00085300;4.17406100;2023-11-21T03:41:38;5.10;;;1.50;;
9799;SDS011;4939;52.00085300;4.17406100;2023-11-21T03:44:04;5.85;;;1.52;;
9799;SDS011;4939;52.00085300;4.17406100;2023-11-21T03:46:30;5.65;;;1.60;;
9799;SDS011;4939;52.00085300;4.17406100;2023-11-21T03:48:56;5.22;;;1.40;;
9799;SDS011;4939;52.00085300;4.17406100;2023-11-21T03:51:22;6.10;;;1.40;;
9799;SDS011;4939;52.00085300;4.17406100;2023-11-21T03:53:48;5.20;;;1.50;;
9799;SDS011;4939;52.00085300;4.17406100;2023-11-21T03:56:14;5.07;;;1.60;;
9799;SDS011;4939;52.00085300;4.17406100;2023-11-21T03:58:40;4.90;;;1.55;;
9799;SDS011;4939;52.00085300;4.17406100;2023-11-21T04:01:07;4.32;;;1.13;;
9799;SDS011;4939;52.00085300;4.17406100;2023-11-21T04:03:33;4.13;;;1.00;;
9799;SDS011;4939;52.00085300;4.17406100;2023-11-21T04:05:59;5.38;;;1.10;;
9799;SDS011;4939;52.00085300;4.17406100;2023-11-21T04:08:26;1.65;;;0.60;;
9799;SDS011;4939;52.00085300;4.17406100;2023-11-21T04:10:52;3.83;;;0.77;;
9799;SDS011;4939;52.00085300;4.17406100;2023-11-21T04:13:18;2.35;;;0.70;;
9799;SDS011;4939;52.00085300;4.17406100;2023-11-21T04:15:44;1.50;;;0.63;;
9799;SDS011;4939;52.00085300;4.17406100;2023-11-21T04:18:10;3.20;;;0.70;;
9799;SDS011;4939;52.00085300;4.17406100;2023-11-21T04:20:37;1.60;;;0.40;;
9799;SDS011;4939;52.00085300;4.17406100;2023-11-21T04:23:03;2.53;;;0.60;;
9799;SDS011;4939;52.00085300;4.17406100;2023-11-21T04:25:29;1.98;;;0.40;;
9799;SDS011;4939;52.00085300;4.17406100;2023-11-21T04:27:55;0.90;;;0.47;;
9799;SDS011;4939;52.00085300;4.17406100;2023-11-21T04:30:21;5.13;;;0.90;;
9799;SDS011;4939;52.00085300;4.17406100;2023-11-21T04:32:47;1.70;;;0.60;;
9799;SDS011;4939;52.00085300;4.17406100;2023-11-21T04:35:13;1.42;;;0.68;;
9799;SDS011;4939;52.00085300;4.17406100;2023-11-21T04:37:40;2.13;;;0.70;;
9799;SDS011;4939;52.00085300;4.17406100;2023-11-21T04:40:06;2.58;;;0.70;;
9799;SDS011;4939;52.00085300;4.17406100;2023-11-21T04:42:35;2.55;;;0.65;;
9799;SDS011;4939;52.00085300;4.17406100;2023-11-21T04:45:02;2.53;;;0.82;;
9799;SDS011;4939;52.00085300;4.17406100;2023-11-21T04:47:33;4.55;;;0.90;;
9799;SDS011;4939;52.00085300;4.17406100;2023-11-21T04:49:59;2.58;;;0.70;;
9799;SDS011;4939;52.00085300;4.17406100;2023-11-21T04:52:25;2.60;;;0.47;;
9799;SDS011;4939;52.00085300;4.17406100;2023-11-21T04:54:51;1.85;;;0.57;;
9799;SDS011;4939;52.00085300;4.17406100;2023-11-21T04:57:20;2.08;;;0.30;;
9799;SDS011;4939;52.00085300;4.17406100;2023-11-21T04:59:47;0.77;;;0.32;;
9799;SDS011;4939;52.00085300;4.17406100;2023-11-21T05:02:16;1.08;;;0.35;;
9799;SDS011;4939;52.00085300;4.17406100;2023-11-21T05:04:43;1.00;;;0.20;;
9799;SDS011;4939;52.00085300;4.17406100;2023-11-21T05:07:09;1.75;;;0.20;;
9799;SDS011;4939;52.00085300;4.17406100;2023-11-21T05:09:35;1.63;;;0.20;;
9799;SDS011;4939;52.00085300;4.17406100;2023-11-21T05:12:03;1.48;;;0.30;;
9799;SDS011;4939;52.00085300;4.17406100;2023-11-21T05:14:29;2.17;;;0.30;;
9799;SDS011;4939;52.00085300;4.17406100;2023-11-21T05:16:55;1.63;;;0.30;;
9799;SDS011;4939;52.00085300;4.17406100;2023-11-21T05:19:21;5.20;;;0.65;;
9799;SDS011;4939;52.00085300;4.17406100;2023-11-21T05:21:47;1.15;;;0.50;;
9799;SDS011;4939;52.00085300;4.17406100;2023-11-21T05:24:14;2.65;;;0.57;;
9799;SDS011;4939;52.00085300;4.17406100;2023-11-21T05:26:40;3.67;;;0.80;;
9799;SDS011;4939;52.00085300;4.17406100;2023-11-21T05:29:06;6.88;;;2.33;;
9799;SDS011;4939;52.00085300;4.17406100;2023-11-21T05:31:32;2.45;;;0.80;;
9799;SDS011;4939;52.00085300;4.17406100;2023-11-21T05:33:58;2.40;;;0.90;;
9799;SDS011;4939;52.00085300;4.17406100;2023-11-21T05:36:24;4.85;;;0.80;;
9799;SDS011;4939;52.00085300;4.17406100;2023-11-21T05:38:50;3.95;;;0.90;;
9799;SDS011;4939;52.00085300;4.17406100;2023-11-21T05:41:16;5.22;;;1.20;;
9799;SDS011;4939;52.00085300;4.17406100;2023-11-21T05:43:43;2.53;;;1.13;;
9799;SDS011;4939;52.00085300;4.17406100;2023-11-21T05:46:09;3.63;;;0.90;;
9799;SDS011;4939;52.00085300;4.17406100;2023-11-21T05:48:35;4.22;;;1.25;;
9799;SDS011;4939;52.00085300;4.17406100;2023-11-21T05:51:07;3.17;;;0.98;;
9799;SDS011;4939;52.00085300;4.17406100;2023-11-21T05:53:33;3.90;;;1.00;;
9799;SDS011;4939;52.00085300;4.17406100;2023-11-21T05:55:59;2.63;;;0.98;;
9799;SDS011;4939;52.00085300;4.17406100;2023-11-21T05:58:26;6.32;;;1.15;;
9799;SDS011;4939;52.00085300;4.17406100;2023-11-21T06:00:52;2.53;;;0.90;;
9799;SDS011;4939;52.00085300;4.17406100;2023-11-21T06:03:18;3.17;;;1.08;;
9799;SDS011;4939;52.00085300;4.17406100;2023-11-21T06:05:44;3.35;;;1.38;;
9799;SDS011;4939;52.00085300;4.17406100;2023-11-21T06:08:10;2.92;;;1.00;;
9799;SDS011;4939;52.00085300;4.17406100;2023-11-21T06:10:36;2.58;;;0.90;;
9799;SDS011;4939;52.00085300;4.17406100;2023-11-21T06:13:02;12.55;;;3.95;;
9799;SDS011;4939;52.00085300;4.17406100;2023-11-21T06:15:29;8.55;;;2.45;;
9799;SDS011;4939;52.00085300;4.17406100;2023-11-21T06:17:55;1.83;;;0.70;;
9799;SDS011;4939;52.00085300;4.17406100;2023-11-21T06:20:21;3.15;;;0.77;;
9799;SDS011;4939;52.00085300;4.17406100;2023-11-21T06:22:48;1.77;;;0.70;;
9799;SDS011;4939;52.00085300;4.17406100;2023-11-21T06:25:18;4.03;;;1.40;;
9799;SDS011;4939;52.00085300;4.17406100;2023-11-21T06:27:44;4.30;;;1.40;;
9799;SDS011;4939;52.00085300;4.17406100;2023-11-21T06:30:12;3.33;;;0.93;;
9799;SDS011;4939;52.00085300;4.17406100;2023-11-21T06:32:39;2.97;;;1.10;;
9799;SDS011;4939;52.00085300;4.17406100;2023-11-21T06:35:05;4.38;;;0.85;;
9799;SDS011;4939;52.00085300;4.17406100;2023-11-21T06:37:32;1.60;;;0.80;;
9799;SDS011;4939;52.00085300;4.17406100;2023-11-21T06:39:59;1.60;;;1.00;;
9799;SDS011;4939;52.00085300;4.17406100;2023-11-21T06:42:25;5.82;;;1.05;;
9799;SDS011;4939;52.00085300;4.17406100;2023-11-21T06:44:51;5.70;;;0.90;;
9799;SDS011;4939;52.00085300;4.17406100;2023-11-21T06:47:18;5.65;;;1.13;;
9799;SDS011;4939;52.00085300;4.17406100;2023-11-21T06:49:50;7.10;;;1.58;;
9799;SDS011;4939;52.00085300;4.17406100;2023-11-21T06:52:16;8.10;;;1.60;;
9799;SDS011;4939;52.00085300;4.17406100;2023-11-21T06:54:42;8.77;;;1.75;;
9799;SDS011;4939;52.00085300;4.17406100;2023-11-21T06:57:08;16.77;;;2.33;;
9799;SDS011;4939;52.00085300;4.17406100;2023-11-21T06:59:34;10.68;;;2.08;;
9799;SDS011;4939;52.00085300;4.17406100;2023-11-21T07:02:01;10.85;;;2.35;;
9799;SDS011;4939;52.00085300;4.17406100;2023-11-21T07:04:27;13.20;;;2.33;;
9799;SDS011;4939;52.00085300;4.17406100;2023-11-21T07:06:53;7.53;;;2.10;;
9799;SDS011;4939;52.00085300;4.17406100;2023-11-21T07:09:19;9.93;;;2.13;;
9799;SDS011;4939;52.00085300;4.17406100;2023-11-21T07:11:51;11.02;;;2.28;;
9799;SDS011;4939;52.00085300;4.17406100;2023-11-21T07:14:17;8.55;;;2.40;;
9799;SDS011;4939;52.00085300;4.17406100;2023-11-21T07:16:44;6.18;;;1.85;;
9799;SDS011;4939;52.00085300;4.17406100;2023-11-21T07:19:10;6.90;;;1.75;;
9799;SDS011;4939;52.00085300;4.17406100;2023-11-21T07:21:37;13.45;;;1.70;;
9799;SDS011;4939;52.00085300;4.17406100;2023-11-21T07:24:05;7.57;;;1.60;;
9799;SDS011;4939;52.00085300;4.17406100;2023-11-21T07:26:32;12.48;;;1.55;;
9799;SDS011;4939;52.00085300;4.17406100;2023-11-21T07:29:02;6.45;;;1.40;;
9799;SDS011;4939;52.00085300;4.17406100;2023-11-21T07:31:28;6.95;;;1.30;;
9799;SDS011;4939;52.00085300;4.17406100;2023-11-21T07:33:54;11.80;;;1.63;;
9799;SDS011;4939;52.00085300;4.17406100;2023-11-21T07:36:23;10.40;;;1.30;;
9799;SDS011;4939;52.00085300;4.17406100;2023-11-21T07:38:49;5.80;;;1.25;;
9799;SDS011;4939;52.00085300;4.17406100;2023-11-21T07:41:15;5.05;;;1.27;;
9799;SDS011;4939;52.00085300;4.17406100;2023-11-21T07:43:43;6.40;;;1.08;;
9799;SDS011;4939;52.00085300;4.17406100;2023-11-21T07:46:09;7.60;;;1.45;;
9799;SDS011;4939;52.00085300;4.17406100;2023-11-21T07:48:37;5.90;;;1.55;;
9799;SDS011;4939;52.00085300;4.17406100;2023-11-21T07:51:07;4.68;;;1.27;;
9799;SDS011;4939;52.00085300;4.17406100;2023-11-21T07:53:33;6.88;;;1.40;;
9799;SDS011;4939;52.00085300;4.17406100;2023-11-21T07:56:03;7.55;;;1.17;;
9799;SDS011;4939;52.00085300;4.17406100;2023-11-21T07:58:30;8.40;;;1.30;;
9799;SDS011;4939;52.00085300;4.17406100;2023-11-21T08:00:58;7.93;;;1.38;;
9799;SDS011;4939;52.00085300;4.17406100;2023-11-21T08:03:24;8.65;;;1.45;;
9799;SDS011;4939;52.00085300;4.17406100;2023-11-21T08:05:51;3.92;;;1.20;;
9799;SDS011;4939;52.00085300;4.17406100;2023-11-21T08:08:17;6.18;;;1.02;;
9799;SDS011;4939;52.00085300;4.17406100;2023-11-21T08:10:44;9.02;;;1.20;;
9799;SDS011;4939;52.00085300;4.17406100;2023-11-21T08:13:13;7.80;;;1.40;;
9799;SDS011;4939;52.00085300;4.17406100;2023-11-21T08:15:41;5.57;;;0.88;;
9799;SDS011;4939;52.00085300;4.17406100;2023-11-21T08:18:11;6.90;;;1.10;;
9799;SDS011;4939;52.00085300;4.17406100;2023-11-21T08:20:37;7.75;;;1.35;;
9799;SDS011;4939;52.00085300;4.17406100;2023-11-21T08:23:05;6.05;;;1.45;;
9799;SDS011;4939;52.00085300;4.17406100;2023-11-21T08:25:31;5.13;;;0.93;;
9799;SDS011;4939;52.00085300;4.17406100;2023-11-21T08:27:58;11.95;;;1.63;;
9799;SDS011;4939;52.00085300;4.17406100;2023-11-21T08:30:24;11.55;;;1.48;;
9799;SDS011;4939;52.00085300;4.17406100;2023-11-21T08:32:50;6.78;;;1.48;;
9799;SDS011;4939;52.00085300;4.17406100;2023-11-21T08:35:18;5.50;;;1.48;;
9799;SDS011;4939;52.00085300;4.17406100;2023-11-21T08:37:44;6.75;;;1.58;;
9799;SDS011;4939;52.00085300;4.17406100;2023-11-21T08:40:11;6.68;;;1.17;;
9799;SDS011;4939;52.00085300;4.17406100;2023-11-21T08:42:41;6.90;;;1.50;;
9799;SDS011;4939;52.00085300;4.17406100;2023-11-21T08:45:07;6.10;;;1.60;;
9799;SDS011;4939;52.00085300;4.17406100;2023-11-21T08:47:35;7.70;;;1.40;;
9799;SDS011;4939;52.00085300;4.17406100;2023-11-21T08:50:01;4.68;;;1.42;;
9799;SDS011;4939;52.00085300;4.17406100;2023-11-21T08:52:27;8.68;;;1.50;;
9799;SDS011;4939;52.00085300;4.17406100;2023-11-21T08:54:53;4.45;;;1.10;;
9799;SDS011;4939;52.00085300;4.17406100;2023-11-21T08:57:24;7.75;;;1.30;;
9799;SDS011;4939;52.00085300;4.17406100;2023-11-21T08:59:50;5.72;;;1.58;;
9799;SDS011;4939;52.00085300;4.17406100;2023-11-21T09:02:20;4.30;;;1.20;;
9799;SDS011;4939;52.00085300;4.17406100;2023-11-21T09:04:48;6.90;;;1.20;;
9799;SDS011;4939;52.00085300;4.17406100;2023-11-21T09:07:14;4.85;;;1.10;;
9799;SDS011;4939;52.00085300;4.17406100;2023-11-21T09:09:40;7.00;;;1.17;;
9799;SDS011;4939;52.00085300;4.17406100;2023-11-21T09:12:06;6.47;;;1.00;;
9799;SDS011;4939;52.00085300;4.17406100;2023-11-21T09:14:32;4.93;;;1.00;;
9799;SDS011;4939;52.00085300;4.17406100;2023-11-21T09:16:58;3.42;;;0.90;;
9799;SDS011;4939;52.00085300;4.17406100;2023-11-21T09:19:25;6.53;;;1.55;;
9799;SDS011;4939;52.00085300;4.17406100;2023-11-21T09:21:51;3.65;;;0.80;;
9799;SDS011;4939;52.00085300;4.17406100;2023-11-21T09:24:17;5.45;;;1.25;;
9799;SDS011;4939;52.00085300;4.17406100;2023-11-21T09:26:43;5.28;;;1.23;;
9799;SDS011;4939;52.00085300;4.17406100;2023-11-21T09:29:10;3.65;;;1.08;;
9799;SDS011;4939;52.00085300;4.17406100;2023-11-21T09:31:36;6.15;;;1.58;;
9799;SDS011;4939;52.00085300;4.17406100;2023-11-21T09:34:03;4.35;;;1.35;;
9799;SDS011;4939;52.00085300;4.17406100;2023-11-21T09:36:31;4.57;;;1.15;;
9799;SDS011;4939;52.00085300;4.17406100;2023-11-21T09:38:58;5.10;;;1.15;;
9799;SDS011;4939;52.00085300;4.17406100;2023-11-21T09:41:33;4.93;;;1.00;;
9799;SDS011;4939;52.00085300;4.17406100;2023-11-21T09:44:09;4.22;;;1.20;;
9799;SDS011;4939;52.00085300;4.17406100;2023-11-21T09:46:40;5.13;;;0.77;;
9799;SDS011;4939;52.00085300;4.17406100;2023-11-21T09:49:08;5.45;;;1.17;;
9799;SDS011;4939;52.00085300;4.17406100;2023-11-21T09:51:38;6.53;;;1.50;;
9799;SDS011;4939;52.00085300;4.17406100;2023-11-21T09:54:06;4.10;;;0.80;;
9799;SDS011;4939;52.00085300;4.17406100;2023-11-21T09:56:34;4.30;;;1.30;;
9799;SDS011;4939;52.00085300;4.17406100;2023-11-21T09:59:01;3.90;;;1.20;;
9799;SDS011;4939;52.00085300;4.17406100;2023-11-21T10:01:32;2.88;;;0.90;;
9799;SDS011;4939;52.00085300;4.17406100;2023-11-21T10:03:58;6.75;;;1.00;;
9799;SDS011;4939;52.00085300;4.17406100;2023-11-21T10:06:25;6.50;;;1.20;;
9799;SDS011;4939;52.00085300;4.17406100;2023-11-21T10:08:52;4.50;;;1.10;;
9799;SDS011;4939;52.00085300;4.17406100;2023-11-21T10:11:24;2.83;;;0.95;;
9799;SDS011;4939;52.00085300;4.17406100;2023-11-21T10:13:54;6.85;;;1.27;;
9799;SDS011;4939;52.00085300;4.17406100;2023-11-21T10:16:22;4.90;;;1.35;;
9799;SDS011;4939;52.00085300;4.17406100;2023-11-21T10:18:51;6.40;;;1.25;;
9799;SDS011;4939;52.00085300;4.17406100;2023-11-21T10:21:19;4.80;;;1.30;;
9799;SDS011;4939;52.00085300;4.17406100;2023-11-21T10:23:45;8.85;;;1.88;;
9799;SDS011;4939;52.00085300;4.17406100;2023-11-21T10:26:12;4.47;;;1.40;;
9799;SDS011;4939;52.00085300;4.17406100;2023-11-21T10:29:02;3.42;;;1.30;;
9799;SDS011;4939;52.00085300;4.17406100;2023-11-21T10:31:31;5.15;;;1.83;;
9799;SDS011;4939;52.00085300;4.17406100;2023-11-21T10:34:19;4.75;;;1.58;;
9799;SDS011;4939;52.00085300;4.17406100;2023-11-21T10:36:44;7.82;;;1.60;;
9799;SDS011;4939;52.00085300;4.17406100;2023-11-21T10:39:14;6.47;;;1.70;;
9799;SDS011;4939;52.00085300;4.17406100;2023-11-21T10:41:44;6.88;;;1.60;;
9799;SDS011;4939;52.00085300;4.17406100;2023-11-21T10:44:11;6.60;;;1.40;;
9799;SDS011;4939;52.00085300;4.17406100;2023-11-21T10:46:41;10.82;;;1.60;;
9799;SDS011;4939;52.00085300;4.17406100;2023-11-21T10:49:08;6.70;;;1.45;;
9799;SDS011;4939;52.00085300;4.17406100;2023-11-21T10:51:36;4.15;;;1.10;;
9799;SDS011;4939;52.00085300;4.17406100;2023-11-21T10:54:08;3.67;;;1.40;;
9799;SDS011;4939;52.00085300;4.17406100;2023-11-21T10:56:34;3.40;;;1.30;;
9799;SDS011;4939;52.00085300;4.17406100;2023-11-21T10:59:05;4.97;;;1.60;;
9799;SDS011;4939;52.00085300;4.17406100;2023-11-21T11:01:35;4.65;;;1.83;;
9799;SDS011;4939;52.00085300;4.17406100;2023-11-21T11:04:02;6.28;;;1.73;;
9799;SDS011;4939;52.00085300;4.17406100;2023-11-21T11:06:31;7.03;;;1.60;;
9799;SDS011;4939;52.00085300;4.17406100;2023-11-21T11:08:58;9.40;;;1.90;;
9799;SDS011;4939;52.00085300;4.17406100;2023-11-21T11:11:27;4.28;;;1.67;;
9799;SDS011;4939;52.00085300;4.17406100;2023-11-21T11:13:55;8.60;;;2.20;;
9799;SDS011;4939;52.00085300;4.17406100;2023-11-21T11:16:21;7.93;;;1.98;;
9799;SDS011;4939;52.00085300;4.17406100;2023-11-21T11:18:47;6.03;;;2.15;;
9799;SDS011;4939;52.00085300;4.17406100;2023-11-21T11:21:33;6.82;;;2.03;;
9799;SDS011;4939;52.00085300;4.17406100;2023-11-21T11:24:30;7.50;;;2.50;;
9799;SDS011;4939;52.00085300;4.17406100;2023-11-21T11:32:37;5.32;;;2.30;;
9799;SDS011;4939;52.00085300;4.17406100;2023-11-21T11:37:55;7.70;;;2.60;;
9799;SDS011;4939;52.00085300;4.17406100;2023-11-21T11:40:22;7.22;;;1.92;;
9799;SDS011;4939;52.00085300;4.17406100;2023-11-21T11:42:58;7.50;;;2.15;;
9799;SDS011;4939;52.00085300;4.17406100;2023-11-21T11:45:33;8.13;;;2.22;;
9799;SDS011;4939;52.00085300;4.17406100;2023-11-21T11:48:01;8.85;;;2.47;;
9799;SDS011;4939;52.00085300;4.17406100;2023-11-21T11:50:28;7.10;;;2.33;;
9799;SDS011;4939;52.00085300;4.17406100;2023-11-21T11:52:55;8.35;;;2.53;;
9799;SDS011;4939;52.00085300;4.17406100;2023-11-21T11:55:36;7.47;;;2.65;;
9799;SDS011;4939;52.00085300;4.17406100;2023-11-21T11:58:04;7.65;;;2.95;;
9799;SDS011;4939;52.00085300;4.17406100;2023-11-21T12:00:34;9.35;;;2.70;;
9799;SDS011;4939;52.00085300;4.17406100;2023-11-21T12:03:03;6.65;;;2.78;;
9799;SDS011;4939;52.00085300;4.17406100;2023-11-21T12:05:32;7.40;;;3.22;;
9799;SDS011;4939;52.00085300;4.17406100;2023-11-21T12:08:07;9.02;;;2.92;;
9799;SDS011;4939;52.00085300;4.17406100;2023-11-21T12:10:34;7.55;;;2.65;;
9799;SDS011;4939;52.00085300;4.17406100;2023-11-21T12:13:01;6.90;;;2.65;;
9799;SDS011;4939;52.00085300;4.17406100;2023-11-21T12:15:39;5.35;;;2.33;;
9799;SDS011;4939;52.00085300;4.17406100;2023-11-21T12:18:06;6.00;;;2.10;;
9799;SDS011;4939;52.00085300;4.17406100;2023-11-21T12:20:32;4.05;;;1.75;;
9799;SDS011;4939;52.00085300;4.17406100;2023-11-21T12:23:04;5.88;;;2.10;;
9799;SDS011;4939;52.00085300;4.17406100;2023-11-21T12:25:31;3.65;;;1.92;;
9799;SDS011;4939;52.00085300;4.17406100;2023-11-21T12:27:58;4.38;;;1.95;;
9799;SDS011;4939;52.00085300;4.17406100;2023-11-21T12:30:25;4.10;;;1.73;;
9799;SDS011;4939;52.00085300;4.17406100;2023-11-21T12:33:00;5.10;;;1.83;;
9799;SDS011;4939;52.00085300;4.17406100;2023-11-21T12:35:28;4.38;;;2.00;;
9799;SDS011;4939;52.00085300;4.17406100;2023-11-21T12:37:55;4.00;;;1.83;;
9799;SDS011;4939;52.00085300;4.17406100;2023-11-21T12:40:24;5.03;;;2.03;;
9799;SDS011;4939;52.00085300;4.17406100;2023-11-21T12:42:51;5.97;;;1.85;;
9799;SDS011;4939;52.00085300;4.17406100;2023-11-21T12:45:19;4.40;;;1.92;;
9799;SDS011;4939;52.00085300;4.17406100;2023-11-21T12:47:50;4.43;;;1.60;;
9799;SDS011;4939;52.00085300;4.17406100;2023-11-21T12:50:24;6.90;;;1.63;;
9799;SDS011;4939;52.00085300;4.17406100;2023-11-21T12:52:53;4.47;;;1.60;;
9799;SDS011;4939;52.00085300;4.17406100;2023-11-21T12:55:20;6.32;;;2.40;;
9799;SDS011;4939;52.00085300;4.17406100;2023-11-21T12:57:48;5.15;;;1.88;;
9799;SDS011;4939;52.00085300;4.17406100;2023-11-21T13:00:31;5.70;;;1.77;;
9799;SDS011;4939;52.00085300;4.17406100;2023-11-21T13:03:02;5.57;;;1.70;;
9799;SDS011;4939;52.00085300;4.17406100;2023-11-21T13:05:36;4.07;;;1.60;;
9799;SDS011;4939;52.00085300;4.17406100;2023-11-21T13:08:10;4.13;;;1.40;;
9799;SDS011;4939;52.00085300;4.17406100;2023-11-21T13:10:38;3.22;;;1.48;;
9799;SDS011;4939;52.00085300;4.17406100;2023-11-21T13:13:07;4.25;;;1.40;;
9799;SDS011;4939;52.00085300;4.17406100;2023-11-21T13:15:34;4.53;;;1.48;;
9799;SDS011;4939;52.00085300;4.17406100;2023-11-21T13:18:01;3.20;;;1.27;;
9799;SDS011;4939;52.00085300;4.17406100;2023-11-21T13:20:29;3.38;;;1.45;;
9799;SDS011;4939;52.00085300;4.17406100;2023-11-21T13:22:56;7.65;;;2.25;;